Time;durP1;ratioP1;P1;durP2;ratioP2;P2;SDS_P1;SDS_P2;PMS_P1;PMS_P2;Temp;Humidity;BMP_temperature;BMP_pressure;BME280_temperature;BME280_humidity;BME280_pressure;Samples;Min_cycle;Max_cycle;Signal;HPM_P1;HPM_P2
2021/06/24 00:00:44;;;;;;;;;;;;;;;19.52;66.99;100774.19;5096652;28;776;-58
2021/06/24 00:03:10;;;;;;;;;;;;;;;19.76;66.88;100768.69;5096438;28;1002;-49
2021/06/24 00:05:35;;;;;;;;;;;;;;;19.83;67.10;100769.97;5096406;28;800;-58
2021/06/24 00:08:01;;;;;;;;;;;;;;;19.79;67.47;100779.97;5096161;28;783;-54
2021/06/24 00:10:26;;;;;;;;;;;;;;;19.70;68.13;100781.72;5096413;28;803;-54
2021/06/24 00:12:52;;;;;;;;;;;;;;;19.72;68.32;100781.44;5083686;28;1992;-55
2021/06/24 00:15:17;;;;;;;;;;;;;;;19.65;68.96;100773.50;5075804;28;791;-59
2021/06/24 00:17:43;;;;;;;;;;;;;;;19.89;68.08;100764.41;5087962;28;1490;-54
2021/06/24 00:20:08;;;;;;;;;;;;;;;19.83;68.43;100766.41;5096901;28;804;-52
2021/06/24 00:22:34;;;;;;;;;;;;;;;19.79;68.67;100763.41;5095883;28;815;-58
2021/06/24 00:24:59;;;;;;;;;;;;;;;19.92;68.10;100761.03;5078037;28;891;-51
2021/06/24 00:27:25;;;;;;;;;;;;;;;19.88;68.17;100760.00;5096969;28;755;-53
2021/06/24 00:29:50;;;;;;;;;;;;;;;19.86;68.21;100745.69;5095694;28;756;-53
2021/06/24 00:32:15;;;;;;;;;;;;;;;19.90;68.38;100755.00;5095580;28;1986;-54
2021/06/24 00:34:41;;;;;;;;;;;;;;;19.89;68.18;100758.88;5096566;28;743;-58
2021/06/24 00:37:06;;;;;;;;;;;;;;;19.81;68.42;100755.66;5094945;28;1102;-53
2021/06/24 00:39:32;;;;;;;;;;;;;;;20.08;67.70;100762.47;5096700;28;781;-55
2021/06/24 00:41:57;;;;;;;;;;;;;;;19.93;68.06;100762.69;5096105;28;760;-52
2021/06/24 00:44:23;;;;;;;;;;;;;;;19.78;66.63;100760.91;5077400;28;963;-54
2021/06/24 00:46:52;;;;;;;;;;;;;;;19.55;64.95;100751.56;5091468;28;1037;-55
2021/06/24 00:49:18;;;;;;;;;;;;;;;19.30;63.41;100756.25;5075710;28;767;-58
2021/06/24 00:51:44;;;;;;;;;;;;;;;19.17;62.55;100752.25;5075448;28;1971;-59
2021/06/24 00:54:12;;;;;;;;;;;;;;;19.27;62.24;100756.84;5075996;28;823;-55
2021/06/24 00:56:38;;;;;;;;;;;;;;;19.34;62.29;100757.31;5077907;28;792;-54
2021/06/24 00:59:04;;;;;;;;;;;;;;;19.18;63.27;100753.91;5079120;28;811;-58
2021/06/24 01:01:30;;;;;;;;;;;;;;;19.19;63.82;100743.69;5081447;28;998;-50
2021/06/24 01:03:55;;;;;;;;;;;;;;;19.24;63.80;100755.47;5100199;28;752;-50
2021/06/24 01:06:22;;;;;;;;;;;;;;;19.25;64.12;100748.88;5081565;28;1190;-58
2021/06/24 01:08:48;;;;;;;;;;;;;;;19.08;64.56;100757.59;5081646;28;1212;-59
2021/06/24 01:11:17;;;;;;;;;;;;;;;19.00;65.05;100755.47;5099548;28;1913;-50
2021/06/24 01:13:43;;;;;;;;;;;;;;;19.05;64.99;100760.91;5099445;28;1127;-55
2021/06/24 01:16:09;;;;;;;;;;;;;;;19.09;64.82;100773.00;5080658;28;1031;-56
2021/06/24 01:18:35;;;;;;;;;;;;;;;19.29;64.68;100768.38;5077619;28;1162;-51
2021/06/24 01:21:01;;;;;;;;;;;;;;;19.06;65.14;100768.06;5078706;28;752;-52
2021/06/24 01:23:27;;;;;;;;;;;;;;;19.27;64.90;100767.88;5078049;28;1204;-49
2021/06/24 01:25:56;;;;;;;;;;;;;;;19.43;64.49;100771.25;5077757;28;1416;-50
2021/06/24 01:28:22;;;;;;;;;;;;;;;19.34;64.82;100764.78;5077862;28;1224;-59
2021/06/24 01:30:48;;;;;;;;;;;;;;;19.10;65.27;100749.03;5078712;28;842;-48
2021/06/24 01:33:14;;;;;;;;;;;;;;;19.11;66.30;100737.72;5077373;28;1898;-54
2021/06/24 01:35:40;;;;;;;;;;;;;;;19.45;66.04;100749.75;5078690;28;972;-48
2021/06/24 01:38:07;;;;;;;;;;;;;;;19.55;65.79;100746.06;5078663;28;783;-52
2021/06/24 01:40:34;;;;;;;;;;;;;;;19.51;66.23;100742.25;5079166;28;880;-59
2021/06/24 01:43:00;;;;;;;;;;;;;;;19.53;65.73;100742.75;5078560;28;784;-52
2021/06/24 01:45:26;;;;;;;;;;;;;;;19.40;65.52;100745.09;5060884;28;1110;-51
2021/06/24 01:47:51;;;;;;;;;;;;;;;19.56;66.56;100742.16;5092085;28;962;-50
2021/06/24 01:50:18;;;;;;;;;;;;;;;19.60;66.99;100743.22;5080543;28;1221;-58
2021/06/24 01:52:44;;;;;;;;;;;;;;;19.82;66.46;100732.50;5080459;28;1988;-59
2021/06/24 01:55:12;;;;;;;;;;;;;;;19.69;67.11;100730.41;5080929;28;1099;-54
2021/06/24 01:57:50;;;;;;;;;;;;;;;19.29;66.83;100732.53;5098412;28;834;-53
2021/06/24 02:00:35;;;;;;;;;;;;;;;19.70;67.38;100742.25;5098120;28;1075;-55
2021/06/24 02:03:13;;;;;;;;;;;;;;;19.84;67.89;100740.47;5076624;28;2109;-53
2021/06/24 02:05:39;;;;;;;;;;;;;;;19.89;68.55;100739.56;5077946;28;815;-53
2021/06/24 02:08:04;;;;;;;;;;;;;;;20.12;68.25;100733.16;5077113;28;557;-53
2021/06/24 02:10:53;;;;;;;;;;;;;;;20.22;68.35;100728.63;5066374;28;1218;-52
2021/06/24 02:13:19;;;;;;;;;;;;;;;20.12;69.12;100730.41;5063540;28;1911;-50
2021/06/24 02:15:46;;;;;;;;;;;;;;;20.18;69.38;100729.19;5078136;28;819;-60
2021/06/24 02:18:14;;;;;;;;;;;;;;;20.07;69.90;100724.94;5076270;28;1178;-58
2021/06/24 02:20:44;;;;;;;;;;;;;;;20.45;68.93;100729.63;5097764;28;837;-58
2021/06/24 02:23:24;;;;;;;;;;;;;;;20.63;68.34;100730.72;5080392;28;1104;-58
2021/06/24 02:26:01;;;;;;;;;;;;;;;20.45;69.02;100733.19;5080014;28;1354;-49
2021/06/24 02:28:39;;;;;;;;;;;;;;;20.57;68.75;100738.25;5098168;28;819;-54
2021/06/24 02:31:17;;;;;;;;;;;;;;;20.38;69.40;100738.28;5097589;28;1913;-58
2021/06/24 02:33:45;;;;;;;;;;;;;;;20.64;68.47;100748.94;5079450;28;1126;-53
2021/06/24 02:36:23;;;;;;;;;;;;;;;20.65;68.35;100750.56;5064739;28;1402;-53
2021/06/24 02:38:49;;;;;;;;;;;;;;;20.57;68.68;100751.28;5097920;28;851;-52
2021/06/24 02:41:15;;;;;;;;;;;;;;;20.61;68.50;100753.13;5062631;28;1316;-51
2021/06/24 02:43:42;;;;;;;;;;;;;;;20.52;68.83;100752.16;5098068;28;839;-50
2021/06/24 02:46:09;;;;;;;;;;;;;;;20.42;68.85;100753.13;5079646;28;1351;-58
2021/06/24 02:48:40;;;;;;;;;;;;;;;20.35;67.82;100759.03;5075738;28;1237;-58
2021/06/24 02:51:07;;;;;;;;;;;;;;;20.32;66.00;100753.31;5076158;28;1894;-49
2021/06/24 02:53:49;;;;;;;;;;;;;;;20.09;65.56;100758.59;5076397;28;1213;-53
2021/06/24 02:56:17;;;;;;;;;;;;;;;19.93;64.92;100760.75;5075592;28;1520;-52
2021/06/24 02:58:44;;;;;;;;;;;;;;;19.90;64.32;100763.28;5077310;28;756;-57
2021/06/24 03:01:29;;;;;;;;;;;;;;;19.64;64.22;100760.81;5077524;28;1229;-49
2021/06/24 03:04:08;;;;;;;;;;;;;;;19.33;64.29;100766.69;5097045;28;816;-59
2021/06/24 03:06:36;;;;;;;;;;;;;;;19.59;62.95;100775.50;5079405;28;1352;-56
2021/06/24 03:09:06;;;;;;;;;;;;;;;19.52;63.02;100776.94;5097365;28;838;-57
2021/06/24 03:11:33;;;;;;;;;;;;;;;19.48;62.63;100779.50;5076647;28;1977;-47
2021/06/24 03:14:03;;;;;;;;;;;;;;;19.21;63.46;100791.91;5077246;28;949;-61
2021/06/24 03:16:34;;;;;;;;;;;;;;;19.37;62.38;100789.81;5095485;28;1244;-58
2021/06/24 03:19:00;;;;;;;;;;;;;;;19.35;62.45;100796.72;5096767;28;831;-57
2021/06/24 03:21:27;;;;;;;;;;;;;;;19.26;63.49;100802.06;5078953;28;1178;-53
2021/06/24 03:23:52;;;;;;;;;;;;;;;19.30;63.84;100797.59;5096833;28;719;-59
2021/06/24 03:26:18;;;;;;;;;;;;;;;19.52;63.23;100790.75;5091688;28;949;-60
2021/06/24 03:28:48;;;;;;;;;;;;;;;19.40;63.89;100791.97;5059074;28;1297;-57
2021/06/24 03:31:19;;;;;;;;;;;;;;;19.51;63.35;100805.66;5076563;28;1974;-60
2021/06/24 03:33:45;;;;;;;;;;;;;;;19.51;63.34;100816.69;5096608;28;791;-53
2021/06/24 03:36:12;;;;;;;;;;;;;;;19.34;64.13;100817.16;5096860;28;831;-56
2021/06/24 03:38:44;;;;;;;;;;;;;;;19.36;64.20;100818.47;5078939;28;1205;-57
2021/06/24 03:41:12;;;;;;;;;;;;;;;19.50;65.73;100826.88;5078482;28;1166;-57
2021/06/24 03:43:39;;;;;;;;;;;;;;;19.77;65.90;100831.84;5078873;28;1130;-54
2021/06/24 03:46:05;;;;;;;;;;;;;;;19.94;66.54;100839.66;5078863;28;1053;-54
2021/06/24 03:48:34;;;;;;;;;;;;;;;19.97;67.11;100843.78;5075521;28;1265;-57
2021/06/24 03:51:09;;;;;;;;;;;;;;;19.78;68.49;100846.44;5078646;28;1913;-55
2021/06/24 03:53:35;;;;;;;;;;;;;;;20.15;67.76;100845.75;5078597;28;1264;-51
2021/06/24 03:56:01;;;;;;;;;;;;;;;19.96;68.77;100842.97;5096504;28;898;-51
2021/06/24 03:58:45;;;;;;;;;;;;;;;20.02;69.24;100849.25;5078432;28;1457;-55
2021/06/24 04:01:12;;;;;;;;;;;;;;;20.15;69.17;100854.03;5096493;28;771;-53
2021/06/24 04:03:37;;;;;;;;;;;;;;;20.50;68.08;100854.66;5083104;28;950;-56
2021/06/24 04:06:07;;;;;;;;;;;;;;;20.47;69.00;100852.50;5076551;28;803;-55
2021/06/24 04:08:33;;;;;;;;;;;;;;;20.59;68.82;100865.84;5058859;28;851;-54
2021/06/24 04:10:59;;;;;;;;;;;;;;;20.51;69.28;100861.84;5071014;28;1382;-51
2021/06/24 04:13:24;;;;;;;;;;;;;;;20.73;68.57;100865.94;5096199;28;1972;-48
2021/06/24 04:15:53;;;;;;;;;;;;;;;20.67;68.78;100859.69;5096681;28;767;-49
2021/06/24 04:18:19;;;;;;;;;;;;;;;20.40;66.72;100863.09;5073977;28;1114;-51
2021/06/24 04:20:47;;;;;;;;;;;;;;;20.15;63.58;100865.06;5076198;28;778;-47
2021/06/24 04:23:13;;;;;;;;;;;;;;;19.57;61.32;100859.66;5076018;28;767;-49
2021/06/24 04:25:48;;;;;;;;;;;;;;;19.29;57.95;100859.38;5074955;28;1296;-48
2021/06/24 04:28:14;;;;;;;;;;;;;;;19.05;55.29;100862.06;5074834;28;1281;-57
2021/06/24 04:30:53;;;;;;;;;;;;;;;18.90;53.38;100861.09;5076390;28;1141;-47
2021/06/24 04:33:19;;;;;;;;;;;;;;;19.10;56.06;100868.34;5078160;28;1991;-44
2021/06/24 04:36:05;;;;;;;;;;;;;;;19.30;60.71;100863.78;5079631;28;991;-49
2021/06/24 04:38:31;;;;;;;;;;;;;;;19.69;62.16;100871.09;5078827;28;775;-53
2021/06/24 04:40:56;;;;;;;;;;;;;;;19.80;64.17;100880.13;5078636;28;1197;-48
2021/06/24 04:43:27;;;;;;;;;;;;;;;19.96;65.04;100876.09;5078811;28;1169;-55
2021/06/24 04:45:53;;;;;;;;;;;;;;;20.10;65.88;100884.44;5080181;28;803;-48
2021/06/24 04:48:20;;;;;;;;;;;;;;;20.17;66.41;100873.91;5095642;28;1161;-55
2021/06/24 04:50:53;;;;;;;;;;;;;;;20.29;66.89;100875.41;5081596;28;1533;-54
2021/06/24 04:53:19;;;;;;;;;;;;;;;20.42;66.86;100885.69;5099718;28;1979;-54
2021/06/24 04:55:54;;;;;;;;;;;;;;;20.57;66.87;100876.38;5081721;28;1323;-54
2021/06/24 04:58:23;;;;;;;;;;;;;;;20.70;66.79;100869.31;5100034;28;775;-53
2021/06/24 05:01:06;;;;;;;;;;;;;;;20.62;67.32;100878.25;5099834;28;646;-49
2021/06/24 05:03:50;;;;;;;;;;;;;;;20.62;67.60;100889.31;5099207;28;605;-50
2021/06/24 05:06:17;;;;;;;;;;;;;;;20.27;66.37;100883.16;5099744;28;759;-48
2021/06/24 05:08:43;;;;;;;;;;;;;;;19.83;64.13;100890.59;5099713;28;827;-48
2021/06/24 05:11:09;;;;;;;;;;;;;;;19.46;62.16;100889.25;5099242;28;867;-58
2021/06/24 05:13:34;;;;;;;;;;;;;;;19.00;61.76;100884.97;5080697;28;1107;-52
2021/06/24 05:16:00;;;;;;;;;;;;;;;19.07;63.83;100890.16;5079463;28;1055;-45
2021/06/24 05:18:25;;;;;;;;;;;;;;;19.26;66.45;100887.53;5096887;28;970;-45
2021/06/24 05:20:50;;;;;;;;;;;;;;;19.46;67.07;100887.34;5099303;28;807;-47
2021/06/24 05:23:16;;;;;;;;;;;;;;;19.68;67.23;100888.78;5099302;28;819;-46
2021/06/24 05:25:42;;;;;;;;;;;;;;;19.65;67.71;100884.66;5098937;28;819;-49
2021/06/24 05:28:07;;;;;;;;;;;;;;;19.67;67.84;100881.63;5099673;28;799;-54
2021/06/24 05:30:33;;;;;;;;;;;;;;;19.77;67.33;100887.03;5081042;28;1221;-56
2021/06/24 05:32:58;;;;;;;;;;;;;;;19.94;66.79;100880.25;5098256;28;1973;-49
2021/06/24 05:35:24;;;;;;;;;;;;;;;19.55;67.63;100889.47;5099269;28;816;-56
2021/06/24 05:37:49;;;;;;;;;;;;;;;19.82;66.51;100884.25;5099228;28;784;-51
2021/06/24 05:40:15;;;;;;;;;;;;;;;19.78;65.82;100888.69;5098485;28;872;-51
2021/06/24 05:42:40;;;;;;;;;;;;;;;19.73;65.50;100885.97;5099597;28;872;-50
2021/06/24 05:45:06;;;;;;;;;;;;;;;19.95;64.62;100885.47;5099431;28;841;-53
2021/06/24 05:47:31;;;;;;;;;;;;;;;19.89;64.35;100883.88;5097943;28;1018;-53
2021/06/24 05:49:56;;;;;;;;;;;;;;;19.99;63.91;100882.94;5080373;28;854;-54
2021/06/24 05:52:22;;;;;;;;;;;;;;;19.95;63.91;100881.88;5099141;28;1971;-54
2021/06/24 05:54:47;;;;;;;;;;;;;;;20.00;63.65;100884.59;5098138;28;752;-53
2021/06/24 05:57:13;;;;;;;;;;;;;;;19.87;64.04;100882.56;5098862;28;827;-57
2021/06/24 05:59:38;;;;;;;;;;;;;;;20.03;63.23;100884.00;5098614;28;732;-51
2021/06/24 06:02:04;;;;;;;;;;;;;;;19.91;63.73;100887.19;5097719;28;990;-54
2021/06/24 06:04:29;;;;;;;;;;;;;;;20.07;63.36;100890.56;5098796;28;802;-51
2021/06/24 06:06:55;;;;;;;;;;;;;;;19.97;63.71;100885.19;5098916;28;842;-55
2021/06/24 06:09:20;;;;;;;;;;;;;;;20.11;63.11;100891.63;5098102;28;739;-55
2021/06/24 06:11:45;;;;;;;;;;;;;;;20.11;63.04;100888.06;5095129;28;1966;-52
2021/06/24 06:14:11;;;;;;;;;;;;;;;20.01;63.59;100891.75;5078317;28;783;-51
2021/06/24 06:16:37;;;;;;;;;;;;;;;20.12;63.26;100886.94;5080102;28;1159;-56
2021/06/24 06:19:02;;;;;;;;;;;;;;;20.24;62.90;100894.78;5098392;28;811;-53
2021/06/24 06:21:29;;;;;;;;;;;;;;;19.95;63.64;100892.91;5098231;28;922;-57
2021/06/24 06:23:55;;;;;;;;;;;;;;;20.18;63.02;100889.31;5097705;28;775;-52
2021/06/24 06:26:21;;;;;;;;;;;;;;;20.22;62.90;100888.75;5098046;28;830;-49
2021/06/24 06:28:46;;;;;;;;;;;;;;;20.15;63.24;100889.91;5098243;28;772;-57
2021/06/24 06:31:12;;;;;;;;;;;;;;;20.28;63.04;100890.31;5097828;28;792;-54
2021/06/24 06:33:37;;;;;;;;;;;;;;;20.06;63.64;100891.69;5097624;28;974;-53
2021/06/24 06:36:03;;;;;;;;;;;;;;;20.17;63.37;100884.94;5097947;28;835;-54
2021/06/24 06:38:28;;;;;;;;;;;;;;;20.08;63.69;100889.47;5097416;28;815;-56
2021/06/24 06:40:54;;;;;;;;;;;;;;;20.11;63.45;100890.81;5098121;28;760;-51
2021/06/24 06:43:19;;;;;;;;;;;;;;;20.10;63.63;100878.13;5097893;28;787;-52
2021/06/24 06:45:48;;;;;;;;;;;;;;;20.34;63.00;100880.84;5097117;28;728;-54
2021/06/24 06:48:14;;;;;;;;;;;;;;;20.43;62.58;100879.06;5097391;28;1002;-56
2021/06/24 06:50:39;;;;;;;;;;;;;;;20.37;62.83;100872.00;5097685;28;740;-50
2021/06/24 06:53:06;;;;;;;;;;;;;;;20.29;63.14;100869.88;5096555;28;1973;-54
2021/06/24 06:55:32;;;;;;;;;;;;;;;20.43;62.79;100875.50;5097763;28;752;-56
2021/06/24 06:57:57;;;;;;;;;;;;;;;20.37;63.21;100866.47;5097653;28;767;-53
2021/06/24 07:00:26;;;;;;;;;;;;;;;20.29;63.52;100858.84;5097279;28;732;-56
2021/06/24 07:02:52;;;;;;;;;;;;;;;20.28;63.50;100860.75;5097038;28;975;-59
2021/06/24 07:05:17;;;;;;;;;;;;;;;20.54;63.13;100862.34;5097282;28;830;-55
2021/06/24 07:07:43;;;;;;;;;;;;;;;20.46;63.28;100864.66;5096968;28;794;-55
2021/06/24 07:10:09;;;;;;;;;;;;;;;20.47;63.43;100858.03;5097290;28;968;-52
2021/06/24 07:12:34;;;;;;;;;;;;;;;20.54;63.53;100860.41;5097171;28;1914;-59
2021/06/24 07:14:59;;;;;;;;;;;;;;;20.71;63.26;100864.63;5096892;28;845;-54
2021/06/24 07:17:25;;;;;;;;;;;;;;;20.63;63.23;100857.78;5086928;28;1224;-58
2021/06/24 07:19:51;;;;;;;;;;;;;;;20.12;63.04;100859.34;5061199;28;824;-53
2021/06/24 07:22:16;;;;;;;;;;;;;;;19.69;62.37;100846.28;5077806;28;1368;-57
2021/06/24 07:24:41;;;;;;;;;;;;;;;19.46;62.23;100851.50;5076679;28;786;-54
2021/06/24 07:27:07;;;;;;;;;;;;;;;19.31;62.05;100848.88;5076832;28;1168;-53
2021/06/24 07:29:32;;;;;;;;;;;;;;;19.34;62.42;100847.47;5076082;28;760;-58
2021/06/24 07:31:58;;;;;;;;;;;;;;;19.38;61.78;100849.34;5076702;28;1909;-53
2021/06/24 07:34:23;;;;;;;;;;;;;;;19.47;61.09;100847.63;5077094;28;823;-50
2021/06/24 07:36:50;;;;;;;;;;;;;;;19.44;60.94;100850.94;5088642;28;959;-54
2021/06/24 07:39:15;;;;;;;;;;;;;;;19.37;60.61;100855.16;5090625;28;1138;-48
2021/06/24 07:41:40;;;;;;;;;;;;;;;19.45;59.99;100852.59;5076640;28;770;-50
2021/06/24 07:44:06;;;;;;;;;;;;;;;19.51;59.54;100849.78;5076150;28;803;-50
2021/06/24 07:46:32;;;;;;;;;;;;;;;19.50;60.25;100854.47;5058788;28;775;-50
2021/06/24 07:48:57;;;;;;;;;;;;;;;19.77;60.34;100848.41;5076297;28;775;-48
2021/06/24 07:51:23;;;;;;;;;;;;;;;19.88;60.64;100843.63;5063628;28;1910;-49
2021/06/24 07:53:48;;;;;;;;;;;;;;;19.99;60.80;100842.38;5085673;28;1531;-48
2021/06/24 07:56:14;;;;;;;;;;;;;;;20.15;60.53;100843.00;5096700;28;772;-49
2021/06/24 07:58:39;;;;;;;;;;;;;;;19.94;61.72;100849.91;5096675;28;725;-51
2021/06/24 08:01:05;;;;;;;;;;;;;;;20.05;61.44;100851.41;5096621;28;764;-51
2021/06/24 08:03:30;;;;;;;;;;;;;;;19.95;61.96;100848.75;5096117;28;804;-52
2021/06/24 08:05:56;;;;;;;;;;;;;;;20.15;61.42;100853.22;5078245;28;1064;-50
2021/06/24 08:08:21;;;;;;;;;;;;;;;20.25;61.58;100855.03;5081275;28;767;-49
2021/06/24 08:10:47;;;;;;;;;;;;;;;20.21;61.77;100853.97;5080544;28;784;-53
2021/06/24 08:13:12;;;;;;;;;;;;;;;20.17;61.95;100865.63;5083991;28;1914;-59
2021/06/24 08:15:38;;;;;;;;;;;;;;;20.22;62.19;100859.19;5088144;28;1035;-55
2021/06/24 08:18:04;;;;;;;;;;;;;;;19.87;62.94;100853.00;5080278;28;1330;-50
2021/06/24 08:20:29;;;;;;;;;;;;;;;19.88;62.79;100859.34;5099650;28;1194;-58
2021/06/24 08:22:55;;;;;;;;;;;;;;;19.78;63.14;100866.59;5100620;28;768;-49
2021/06/24 08:25:21;;;;;;;;;;;;;;;19.37;64.22;100864.25;5100672;28;839;-49
2021/06/24 08:27:49;;;;;;;;;;;;;;;19.50;64.06;100865.50;5099473;28;1018;-51
2021/06/24 08:30:15;;;;;;;;;;;;;;;19.53;63.91;100859.44;5093556;28;855;-50
2021/06/24 08:32:40;;;;;;;;;;;;;;;19.58;63.86;100864.06;5099972;28;1925;-50
2021/06/24 08:35:07;;;;;;;;;;;;;;;19.72;63.24;100861.44;5100198;28;828;-48
2021/06/24 08:37:32;;;;;;;;;;;;;;;19.67;63.48;100865.06;5100287;28;847;-49
2021/06/24 08:39:57;;;;;;;;;;;;;;;19.61;63.85;100864.28;5100122;28;834;-53
2021/06/24 08:42:23;;;;;;;;;;;;;;;19.87;62.83;100864.03;5099280;28;966;-53
2021/06/24 08:44:48;;;;;;;;;;;;;;;19.84;63.06;100859.13;5081624;28;860;-52
2021/06/24 08:47:14;;;;;;;;;;;;;;;19.63;64.00;100861.25;5100067;28;743;-51
2021/06/24 08:49:40;;;;;;;;;;;;;;;19.52;64.40;100855.00;5099851;28;763;-47
2021/06/24 08:52:06;;;;;;;;;;;;;;;19.54;64.52;100854.72;5100027;28;1922;-47
2021/06/24 08:54:31;;;;;;;;;;;;;;;19.45;64.68;100849.84;5081924;28;764;-59
2021/06/24 08:56:56;;;;;;;;;;;;;;;19.50;64.51;100851.72;5097665;28;1008;-45
2021/06/24 08:59:22;;;;;;;;;;;;;;;19.37;65.15;100846.91;5079844;28;748;-54
2021/06/24 09:01:50;;;;;;;;;;;;;;;19.31;65.13;100851.63;5079656;28;792;-45
2021/06/24 09:04:16;;;;;;;;;;;;;;;19.35;65.26;100847.19;5078988;28;863;-47
2021/06/24 09:06:42;;;;;;;;;;;;;;;19.44;64.96;100842.66;5079773;28;924;-51
2021/06/24 09:09:07;;;;;;;;;;;;;;;19.63;64.65;100837.25;5098546;28;1150;-49
2021/06/24 09:11:32;;;;;;;;;;;;;;;19.42;65.45;100831.13;5099196;28;1984;-49
2021/06/24 09:55:28;;;;;;;;;;;;;;;19.27;66.73;100806.47;5057193;28;1243;-45
2021/06/24 09:58:21;;;;;;;;;;;;;;;19.38;66.04;100816.28;5015101;28;1020;-39
2021/06/24 10:15:46;;;;;;;;;;;;;;;19.25;66.61;100814.19;4961605;28;969;-38
2021/06/24 10:18:12;;;;;;;;;;;;;;;19.36;66.19;100810.22;4998698;28;768;-37
2021/06/24 10:20:38;;;;;;;;;;;;;;;19.38;66.39;100809.94;5009761;28;985;-38
2021/06/24 10:23:08;;;;;;;;;;;;;;;19.33;66.80;100805.28;5108628;22;3774;-38
2021/06/24 10:25:34;;;;;;;;;;;;;;;19.35;66.68;100802.22;5036751;28;739;-36
2021/06/24 10:27:59;;;;;;;;;;;;;;;19.92;64.55;100795.00;5054117;28;1513;-37
2021/06/24 10:30:25;;;;;;;;;;;;;;;19.79;64.93;100806.72;5036616;28;1293;-36
2021/06/24 10:32:57;;;;;;;;;;;;;;;19.77;65.21;100792.41;5057348;28;1975;-38
2021/06/24 10:35:23;;;;;;;;;;;;;;;19.88;64.83;100802.22;5057533;28;1148;-61
2021/06/24 10:37:49;;;;;;;;;;;;;;;19.89;65.00;100792.00;5056897;28;838;-38
2021/06/24 10:40:23;;;;;;;;;;;;;;;19.90;64.91;100793.66;5057416;28;731;-38
2021/06/24 10:42:52;;;;;;;;;;;;;;;19.86;65.02;100801.69;5057436;28;770;-37
2021/06/24 10:45:18;;;;;;;;;;;;;;;19.99;64.68;100789.09;5056590;28;955;-38
2021/06/24 10:47:43;;;;;;;;;;;;;;;20.02;64.59;100799.56;5048379;28;1128;-39
2021/06/24 10:52:53;;;;;;;;;;;;;;;19.91;64.83;100792.50;5036764;28;1910;-38
2021/06/24 10:55:30;;;;;;;;;;;;;;;19.88;65.01;100793.09;5037249;28;851;-37
2021/06/24 10:57:56;;;;;;;;;;;;;;;19.93;64.99;100796.63;5037396;28;771;-38
2021/06/24 11:00:32;;;;;;;;;;;;;;;20.07;64.59;100785.69;5052826;28;984;-38
2021/06/24 11:02:57;;;;;;;;;;;;;;;20.06;64.42;100789.53;5057116;28;807;-38
2021/06/24 11:05:23;;;;;;;;;;;;;;;19.92;65.09;100788.63;5056669;28;811;-40
2021/06/24 11:07:49;;;;;;;;;;;;;;;19.94;64.99;100783.66;5038992;28;808;-37
2021/06/24 11:10:14;;;;;;;;;;;;;;;19.81;65.34;100787.94;5039299;28;755;-38
2021/06/24 11:12:55;;;;;;;;;;;;;;;19.96;64.85;100790.53;5056598;28;1918;-37
2021/06/24 11:15:39;;;;;;;;;;;;;;;19.94;65.25;100791.94;5056523;28;998;-38
2021/06/24 11:18:05;;;;;;;;;;;;;;;20.05;64.85;100787.94;5056140;28;1544;-43
2021/06/24 11:20:42;;;;;;;;;;;;;;;19.93;64.30;100787.53;5056341;28;839;-38
2021/06/24 11:23:26;;;;;;;;;;;;;;;19.69;63.27;100790.28;5056570;28;1175;-64
2021/06/24 11:26:02;;;;;;;;;;;;;;;19.56;61.47;100783.53;5037049;28;743;-39
2021/06/24 11:32:08;;;;;;;;;;;;;;;19.08;59.36;100768.63;5036016;28;1918;-38
2021/06/24 11:37:00;;;;;;;;;;;;;;;18.80;58.01;100765.53;5036424;28;879;-38
2021/06/24 11:39:34;;;;;;;;;;;;;;;18.72;57.88;100774.41;5037041;28;819;-61
2021/06/24 11:42:01;;;;;;;;;;;;;;;18.76;57.91;100769.97;5056443;28;776;-37
2021/06/24 11:44:27;;;;;;;;;;;;;;;19.03;58.91;100774.16;5055967;28;959;-37
2021/06/24 11:46:53;;;;;;;;;;;;;;;19.22;59.90;100765.16;5056257;28;811;-38
2021/06/24 11:49:31;;;;;;;;;;;;;;;19.40;61.25;100767.16;5056262;28;894;-37
2021/06/24 12:05:27;;;;;;;;;;;;;;;19.97;64.25;100774.78;5055677;28;755;-38
2021/06/24 12:07:52;;;;;;;;;;;;;;;19.92;64.58;100763.81;5056322;28;839;-37
2021/06/24 12:10:22;;;;;;;;;;;;;;;19.95;64.83;100764.03;5056248;28;752;-39
2021/06/24 12:12:48;;;;;;;;;;;;;;;19.78;65.46;100764.50;5055505;28;1976;-38
2021/06/24 12:15:13;;;;;;;;;;;;;;;19.63;65.57;100764.72;5055990;28;959;-43
2021/06/24 12:17:39;;;;;;;;;;;;;;;19.40;65.71;100769.09;5056132;28;747;-37
2021/06/24 12:20:09;;;;;;;;;;;;;;;19.41;65.26;100768.00;5004608;28;806;-39
2021/06/24 12:22:35;;;;;;;;;;;;;;;19.36;65.16;100765.28;5055563;28;1210;-38
2021/06/24 12:25:02;;;;;;;;;;;;;;;19.41;64.74;100768.00;5040470;28;1150;-38
2021/06/24 12:27:49;;;;;;;;;;;;;;;19.13;65.94;100764.97;5035865;28;803;-42
2021/06/24 12:30:15;;;;;;;;;;;;;;;19.32;67.65;100757.59;5051611;28;968;-58
2021/06/24 12:32:48;;;;;;;;;;;;;;;19.63;67.31;100757.25;5055627;28;1914;-37
2021/06/24 12:35:14;;;;;;;;;;;;;;;19.73;66.86;100761.00;5055274;28;842;-37
2021/06/24 12:37:42;;;;;;;;;;;;;;;19.87;66.34;100761.94;5038098;28;1368;-37
2021/06/24 12:40:14;;;;;;;;;;;;;;;19.95;65.76;100752.16;5038515;28;828;-37
2021/06/24 12:43:06;;;;;;;;;;;;;;;19.94;65.86;100750.53;5055064;28;735;-38
2021/06/24 12:45:32;;;;;;;;;;;;;;;19.97;65.88;100756.28;5050991;28;1575;-38
2021/06/24 12:47:57;;;;;;;;;;;;;;;19.59;65.65;100747.09;5055681;28;751;-38
2021/06/24 12:50:34;;;;;;;;;;;;;;;19.71;66.03;100757.69;5054760;28;825;-38
2021/06/24 12:53:01;;;;;;;;;;;;;;;19.60;65.65;100748.72;5058354;28;2274;-38
2021/06/24 12:55:38;;;;;;;;;;;;;;;19.26;64.89;100749.69;5059649;28;776;-38
2021/06/24 12:58:24;;;;;;;;;;;;;;;19.05;64.37;100749.88;5040894;28;896;-37
2021/06/24 13:00:50;;;;;;;;;;;;;;;18.90;64.80;100752.78;4998751;28;1234;-37
2021/06/24 13:03:36;;;;;;;;;;;;;;;18.81;65.96;100758.88;5020999;28;921;-38
2021/06/24 13:06:12;;;;;;;;;;;;;;;19.00;65.41;100766.50;5039679;28;1646;-38
2021/06/24 13:08:37;;;;;;;;;;;;;;;19.17;63.83;100766.03;5059146;28;824;-38
2021/06/24 13:11:13;;;;;;;;;;;;;;;19.00;63.81;100768.41;5040690;28;1132;-38
2021/06/24 13:13:38;;;;;;;;;;;;;;;19.00;63.28;100769.25;5056071;28;1909;-38
2021/06/24 13:16:19;;;;;;;;;;;;;;;19.05;62.90;100771.13;5038919;28;855;-38
2021/06/24 13:18:49;;;;;;;;;;;;;;;19.08;62.41;100765.03;5051923;28;791;-38
2021/06/24 13:21:15;;;;;;;;;;;;;;;19.08;62.27;100770.53;5041201;28;775;-38
2021/06/24 13:23:41;;;;;;;;;;;;;;;18.96;62.48;100770.94;5040891;28;1183;-38
2021/06/24 13:26:10;;;;;;;;;;;;;;;19.05;62.09;100765.59;5058607;28;874;-38
2021/06/24 13:28:37;;;;;;;;;;;;;;;18.86;62.46;100758.03;5041020;28;1238;-38
2021/06/24 13:31:03;;;;;;;;;;;;;;;18.92;62.25;100753.34;5059214;28;823;-38
2021/06/24 13:33:38;;;;;;;;;;;;;;;18.85;62.26;100755.56;5058148;28;1898;-38
2021/06/24 13:36:17;;;;;;;;;;;;;;;19.00;61.79;100752.72;5058506;28;794;-37
2021/06/24 13:38:53;;;;;;;;;;;;;;;18.87;62.22;100743.16;5059017;28;740;-37
2021/06/24 13:41:28;;;;;;;;;;;;;;;19.01;61.70;100740.56;5058336;28;794;-37
2021/06/24 13:44:30;;;;;;;;;;;;;;;18.94;61.96;100745.59;5020593;28;1211;-38
2021/06/24 13:46:55;;;;;;;;;;;;;;;18.86;61.87;100748.94;4977685;28;1234;-37
2021/06/24 13:49:21;;;;;;;;;;;;;;;18.79;62.26;100747.34;5007813;28;931;-39
2021/06/24 13:51:50;;;;;;;;;;;;;;;18.80;62.09;100749.00;5038242;28;1914;-38
2021/06/24 13:54:22;;;;;;;;;;;;;;;18.81;62.08;100738.78;5038291;28;752;-37
2021/06/24 13:56:48;;;;;;;;;;;;;;;18.79;62.08;100738.28;5019058;28;916;-37
2021/06/24 13:59:13;;;;;;;;;;;;;;;18.79;61.92;100736.34;5020323;28;1215;-37
2021/06/24 14:01:39;;;;;;;;;;;;;;;18.92;61.50;100734.03;5038435;28;784;-37
2021/06/24 14:04:08;;;;;;;;;;;;;;;18.89;61.63;100748.41;5037710;28;808;-38
2021/06/24 14:06:37;;;;;;;;;;;;;;;18.93;61.91;100736.50;5058001;28;768;-38
2021/06/24 14:09:07;;;;;;;;;;;;;;;19.02;61.25;100742.19;5058065;28;790;-37
2021/06/24 14:11:33;;;;;;;;;;;;;;;18.96;61.68;100751.66;5057415;28;1965;-41
2021/06/24 14:13:58;;;;;;;;;;;;;;;19.00;61.36;100749.94;5022654;28;964;-41
2021/06/24 14:16:24;;;;;;;;;;;;;;;19.07;61.16;100755.94;5040136;28;807;-38